Airfield :
LOGIN :

Register | Disclaimer

   EN    FR    IT 

 










Legend :    VFR   Marginal VFR   IFR   Intensive IFR   Very Intensive IFR
Visi :
Ceiling :
>= 8 km
>= 3000ft
5 to 8 km
1000 to 3000 ft
1500m to 5 km
500 to 1000 ft
800 to 1500m
200 to 500 ft
< 800m
< 200 ft
Symbols :   Thunderstorms  Fog  Heavy snow  Heavy precipitations  Wind > 20 kt
SIGMETs :     Misc.  Thunderstorms  Icing  Turbulence  Mountain Waves  Volcanic Ashes







- Airport Elevation : 675 ft
- IATA code : RZE


EPRZ - Rzeszow-Jasionka

CURRENT METAR :
  • 220830Z 03011KT 8000 -SN OVC008 M03/M05 Q1021

EXPIRED METARs :
  • 220800Z 02009KT 5000 -SN BR OVC008 M03/M04 Q1022
  • 220730Z 03010KT 4700 -SN BR OVC008 M03/M04 Q1021
  • 220700Z 02008KT 5000 -SN BR OVC008 M03/M04 Q1021
  • 220630Z 03006KT 7000 -SN OVC008 M03/M04 Q1021
  • 220600Z 02007KT 7000 -SN BKN008 M03/M04 Q1021

TAF TAF EPRZ
Valid from the 22 at 06:00 until the 23 at 06:00 UTC


220530Z 2206/2306 04008KT 9999 BKN033
TEMPO 2206/2306 4000 -SN BR BKN008
No reported NOTAMs for that airfield.



MET'MAP, your aeronautical weather chart ! - Copyright ORBIFLY December 2007 - Disclaimer

ORBIFLY MET'MAP TEAM :

Programming & Development : Alexandra Zaïnal
Concept & Development : Baudouin d'Aumeries
Co-Development & Prog : Marc-Olivier Méhu
Technical & hardware support : Manuel Goepfert

Contact : metmap@orbifly.com




SOURCES & CREDITS :

   NOAA